KBRO/BRO METAR and TAF weather

Enter ICAO airport designator
Station Type Date Time Source
KBRO METAR 2021/07/26 12:53 UTC NOAA

KBRO 261253Z 00000KT 10SM CLR 27/25 A2995 RMK AO2 SLP139 T02720250


Station Type Date Time Source
KBRO Decoded METAR 2021/07/26 12:53 UTC NOAA

BROWNSVILLE/SOUTH PADRE IS, TX, United States (KBRO) 25-54N 97-25W 5M
Jul 26, 2021 - 08:53 AM EDT / 2021.07.26 1253 UTC
Wind: Calm:0
Visibility: 10 mile(s):0
Sky conditions: clear
Temperature: 81.0 F (27.2 C)
Dew Point: 77.0 F (25.0 C)
Relative Humidity: 87%
Pressure (altimeter): 29.95 in. Hg (1014 hPa)
ob: KBRO 261253Z 00000KT 10SM CLR 27/25 A2995 RMK AO2 SLP139 T02720250
cycle: 13

Station Type Date Time Source
KBRO TAF 2021/07/26 12:36 UTC NOAA

TAF KBRO 261135Z 2612/2712 14002KT P6SM SCT020
TEMPO 2612/2613 4SM BR
FM261400 16007KT P6SM FEW025
FM261900 12009KT P6SM FEW250
FM270600 VRB03KT P6SM SKC

Example: see airport list